sensor_id;sensor_type;location;lat;lon;timestamp;P1;durP1;ratioP1;P2;durP2;ratioP2
50543;SDS011;41176;44.032;20.900;2022-09-27T03:23:31;1.52;;;0.50;;
50543;SDS011;41176;44.032;20.900;2022-09-27T03:53:43;0.68;;;0.47;;
50543;SDS011;41176;44.032;20.900;2022-09-27T04:16:10;0.50;;;0.30;;
50543;SDS011;41176;44.032;20.900;2022-09-27T04:19:21;0.65;;;0.30;;
50543;SDS011;41176;44.032;20.900;2022-09-27T04:21:58;0.98;;;0.32;;
50543;SDS011;41176;44.032;20.900;2022-09-27T04:24:33;0.57;;;0.30;;
50543;SDS011;41176;44.032;20.900;2022-09-27T04:33:14;0.77;;;0.43;;
50543;SDS011;41176;44.032;20.900;2022-09-27T04:36:02;0.63;;;0.28;;
50543;SDS011;41176;44.032;20.900;2022-09-27T04:38:47;0.52;;;0.25;;
50543;SDS011;41176;44.032;20.900;2022-09-27T04:41:13;0.68;;;0.28;;
50543;SDS011;41176;44.032;20.900;2022-09-27T04:46:24;0.10;;;0.10;;
50543;SDS011;41176;44.032;20.900;2022-09-27T04:52:17;0.95;;;0.55;;
50543;SDS011;41176;44.032;20.900;2022-09-27T04:55:30;1.45;;;0.52;;
50543;SDS011;41176;44.032;20.900;2022-09-27T05:01:27;0.22;;;0.17;;
50543;SDS011;41176;44.032;20.900;2022-09-27T05:08:00;0.40;;;0.30;;
50543;SDS011;41176;44.032;20.900;2022-09-27T05:13:37;0.22;;;0.10;;
50543;SDS011;41176;44.032;20.900;2022-09-27T05:16:08;0.47;;;0.20;;
50543;SDS011;41176;44.032;20.900;2022-09-27T05:19:26;0.55;;;0.30;;
50543;SDS011;41176;44.032;20.900;2022-09-27T05:22:30;0.50;;;0.30;;
50543;SDS011;41176;44.032;20.900;2022-09-27T05:34:17;0.73;;;0.40;;
50543;SDS011;41176;44.032;20.900;2022-09-27T05:40:43;0.45;;;0.30;;
50543;SDS011;41176;44.032;20.900;2022-09-27T05:43:14;0.50;;;0.30;;
50543;SDS011;41176;44.032;20.900;2022-09-27T05:55:49;1.38;;;0.50;;
50543;SDS011;41176;44.032;20.900;2022-09-27T06:08:48;0.50;;;0.30;;
50543;SDS011;41176;44.032;20.900;2022-09-27T06:15:11;0.73;;;0.20;;
50543;SDS011;41176;44.032;20.900;2022-09-27T06:25:30;1.25;;;0.60;;
50543;SDS011;41176;44.032;20.900;2022-09-27T06:31:48;0.50;;;0.25;;
50543;SDS011;41176;44.032;20.900;2022-09-27T06:34:14;1.10;;;0.30;;
50543;SDS011;41176;44.032;20.900;2022-09-27T06:36:40;0.55;;;0.20;;
50543;SDS011;41176;44.032;20.900;2022-09-27T06:39:07;0.52;;;0.20;;
50543;SDS011;41176;44.032;20.900;2022-09-27T06:41:32;0.65;;;0.22;;
50543;SDS011;41176;44.032;20.900;2022-09-27T06:44:00;1.02;;;0.40;;
50543;SDS011;41176;44.032;20.900;2022-09-27T06:46:26;2.38;;;0.90;;
50543;SDS011;41176;44.032;20.900;2022-09-27T06:48:52;0.93;;;0.45;;
50543;SDS011;41176;44.032;20.900;2022-09-27T06:51:19;2.72;;;0.63;;
50543;SDS011;41176;44.032;20.900;2022-09-27T06:53:44;0.93;;;0.43;;
50543;SDS011;41176;44.032;20.900;2022-09-27T06:56:10;0.32;;;0.22;;
50543;SDS011;41176;44.032;20.900;2022-09-27T06:58:36;1.30;;;0.57;;
50543;SDS011;41176;44.032;20.900;2022-09-27T07:01:20;1.00;;;0.47;;
50543;SDS011;41176;44.032;20.900;2022-09-27T07:03:49;1.25;;;0.50;;
50543;SDS011;41176;44.032;20.900;2022-09-27T07:06:17;4.07;;;1.23;;
50543;SDS011;41176;44.032;20.900;2022-09-27T07:08:50;2.28;;;1.10;;
50543;SDS011;41176;44.032;20.900;2022-09-27T07:11:16;4.18;;;1.98;;
50543;SDS011;41176;44.032;20.900;2022-09-27T07:13:43;4.28;;;2.28;;
50543;SDS011;41176;44.032;20.900;2022-09-27T07:16:12;1.77;;;0.80;;
50543;SDS011;41176;44.032;20.900;2022-09-27T07:18:41;5.80;;;1.73;;
50543;SDS011;41176;44.032;20.900;2022-09-27T07:21:07;2.20;;;1.42;;
50543;SDS011;41176;44.032;20.900;2022-09-27T07:23:35;0.40;;;0.20;;
50543;SDS011;41176;44.032;20.900;2022-09-27T07:26:01;0.90;;;0.47;;
50543;SDS011;41176;44.032;20.900;2022-09-27T07:28:28;1.33;;;0.70;;
50543;SDS011;41176;44.032;20.900;2022-09-27T07:30:55;1.45;;;0.55;;
50543;SDS011;41176;44.032;20.900;2022-09-27T07:33:21;0.77;;;0.38;;
50543;SDS011;41176;44.032;20.900;2022-09-27T07:35:47;0.90;;;0.32;;
50543;SDS011;41176;44.032;20.900;2022-09-27T07:38:13;0.65;;;0.32;;
50543;SDS011;41176;44.032;20.900;2022-09-27T07:40:40;0.30;;;0.15;;
50543;SDS011;41176;44.032;20.900;2022-09-27T07:43:06;1.50;;;0.55;;
50543;SDS011;41176;44.032;20.900;2022-09-27T07:45:33;0.75;;;0.40;;
50543;SDS011;41176;44.032;20.900;2022-09-27T07:47:59;0.73;;;0.30;;
50543;SDS011;41176;44.032;20.900;2022-09-27T07:50:31;0.88;;;0.32;;
50543;SDS011;41176;44.032;20.900;2022-09-27T07:52:57;1.23;;;0.38;;
50543;SDS011;41176;44.032;20.900;2022-09-27T07:58:33;1.30;;;0.52;;
50543;SDS011;41176;44.032;20.900;2022-09-27T08:00:59;0.90;;;0.45;;
50543;SDS011;41176;44.032;20.900;2022-09-27T08:03:26;0.75;;;0.20;;
50543;SDS011;41176;44.032;20.900;2022-09-27T08:05:52;0.95;;;0.50;;
50543;SDS011;41176;44.032;20.900;2022-09-27T08:08:18;0.38;;;0.15;;
50543;SDS011;41176;44.032;20.900;2022-09-27T08:11:12;0.90;;;0.40;;
50543;SDS011;41176;44.032;20.900;2022-09-27T08:13:39;0.43;;;0.20;;
50543;SDS011;41176;44.032;20.900;2022-09-27T08:16:09;0.40;;;0.20;;
50543;SDS011;41176;44.032;20.900;2022-09-27T08:18:36;0.68;;;0.30;;
50543;SDS011;41176;44.032;20.900;2022-09-27T08:21:02;0.80;;;0.40;;
50543;SDS011;41176;44.032;20.900;2022-09-27T08:23:28;0.50;;;0.28;;
50543;SDS011;41176;44.032;20.900;2022-09-27T08:25:55;1.45;;;0.40;;
50543;SDS011;41176;44.032;20.900;2022-09-27T08:28:24;1.52;;;0.45;;
50543;SDS011;41176;44.032;20.900;2022-09-27T08:30:51;1.58;;;0.50;;
50543;SDS011;41176;44.032;20.900;2022-09-27T08:33:17;1.27;;;0.40;;
50543;SDS011;41176;44.032;20.900;2022-09-27T08:35:43;1.23;;;0.50;;
50543;SDS011;41176;44.032;20.900;2022-09-27T08:38:09;1.23;;;0.30;;
50543;SDS011;41176;44.032;20.900;2022-09-27T08:43:35;0.70;;;0.43;;
50543;SDS011;41176;44.032;20.900;2022-09-27T08:48:55;0.73;;;0.30;;
50543;SDS011;41176;44.032;20.900;2022-09-27T08:51:28;0.70;;;0.38;;
50543;SDS011;41176;44.032;20.900;2022-09-27T08:53:59;0.95;;;0.40;;
50543;SDS011;41176;44.032;20.900;2022-09-27T08:59:24;0.45;;;0.20;;
50543;SDS011;41176;44.032;20.900;2022-09-27T09:01:54;0.60;;;0.28;;
50543;SDS011;41176;44.032;20.900;2022-09-27T09:04:53;0.73;;;0.40;;
50543;SDS011;41176;44.032;20.900;2022-09-27T09:07:19;1.33;;;0.55;;
50543;SDS011;41176;44.032;20.900;2022-09-27T09:10:22;1.70;;;0.50;;
50543;SDS011;41176;44.032;20.900;2022-09-27T09:19:59;1.80;;;0.50;;
50543;SDS011;41176;44.032;20.900;2022-09-27T09:24:42;0.95;;;0.52;;
50543;SDS011;41176;44.032;20.900;2022-09-27T09:27:27;0.65;;;0.35;;
50543;SDS011;41176;44.032;20.900;2022-09-27T09:30:22;0.77;;;0.30;;
50543;SDS011;41176;44.032;20.900;2022-09-27T09:35:22;0.77;;;0.30;;
50543;SDS011;41176;44.032;20.900;2022-09-27T09:37:56;1.05;;;0.50;;
50543;SDS011;41176;44.032;20.900;2022-09-27T09:40:41;1.48;;;0.30;;
50543;SDS011;41176;44.032;20.900;2022-09-27T09:43:22;1.00;;;0.40;;
50543;SDS011;41176;44.032;20.900;2022-09-27T09:46:06;0.73;;;0.40;;
50543;SDS011;41176;44.032;20.900;2022-09-27T09:48:57;1.07;;;0.50;;
50543;SDS011;41176;44.032;20.900;2022-09-27T09:51:45;1.70;;;0.60;;
50543;SDS011;41176;44.032;20.900;2022-09-27T09:54:39;1.45;;;0.70;;
50543;SDS011;41176;44.032;20.900;2022-09-27T09:59:58;1.80;;;0.73;;
50543;SDS011;41176;44.032;20.900;2022-09-27T10:02:31;1.50;;;0.68;;
50543;SDS011;41176;44.032;20.900;2022-09-27T10:05:00;1.58;;;0.60;;
50543;SDS011;41176;44.032;20.900;2022-09-27T10:07:29;1.23;;;0.60;;
50543;SDS011;41176;44.032;20.900;2022-09-27T10:09:58;1.38;;;0.60;;
50543;SDS011;41176;44.032;20.900;2022-09-27T10:12:26;0.63;;;0.30;;
50543;SDS011;41176;44.032;20.900;2022-09-27T10:15:17;0.88;;;0.40;;
50543;SDS011;41176;44.032;20.900;2022-09-27T10:25:08;0.75;;;0.40;;
50543;SDS011;41176;44.032;20.900;2022-09-27T10:31:02;1.80;;;0.63;;
50543;SDS011;41176;44.032;20.900;2022-09-27T10:40:14;1.05;;;0.45;;
50543;SDS011;41176;44.032;20.900;2022-09-27T10:46:14;2.30;;;0.82;;
50543;SDS011;41176;44.032;20.900;2022-09-27T10:52:23;1.73;;;0.65;;
50543;SDS011;41176;44.032;20.900;2022-09-27T10:54:56;1.63;;;0.70;;
50543;SDS011;41176;44.032;20.900;2022-09-27T10:57:25;1.75;;;0.60;;
50543;SDS011;41176;44.032;20.900;2022-09-27T10:59:54;3.95;;;0.90;;
50543;SDS011;41176;44.032;20.900;2022-09-27T11:02:23;0.75;;;0.40;;
50543;SDS011;41176;44.032;20.900;2022-09-27T11:07:28;1.85;;;0.70;;
50543;SDS011;41176;44.032;20.900;2022-09-27T11:09:55;2.90;;;1.17;;
50543;SDS011;41176;44.032;20.900;2022-09-27T11:12:47;2.17;;;0.93;;
50543;SDS011;41176;44.032;20.900;2022-09-27T11:15:31;2.10;;;0.68;;
50543;SDS011;41176;44.032;20.900;2022-09-27T11:18:10;1.25;;;0.45;;
50543;SDS011;41176;44.032;20.900;2022-09-27T11:21:14;1.60;;;0.40;;
50543;SDS011;41176;44.032;20.900;2022-09-27T11:23:48;0.80;;;0.40;;
50543;SDS011;41176;44.032;20.900;2022-09-27T11:26:56;0.82;;;0.43;;
50543;SDS011;41176;44.032;20.900;2022-09-27T11:30:10;1.25;;;0.55;;
50543;SDS011;41176;44.032;20.900;2022-09-27T11:39:55;1.63;;;0.50;;
50543;SDS011;41176;44.032;20.900;2022-09-27T11:49:58;1.15;;;0.50;;
50543;SDS011;41176;44.032;20.900;2022-09-27T12:04:17;1.05;;;0.45;;
50543;SDS011;41176;44.032;20.900;2022-09-27T12:09:51;1.38;;;0.55;;
50543;SDS011;41176;44.032;20.900;2022-09-27T12:12:35;0.73;;;0.35;;
50543;SDS011;41176;44.032;20.900;2022-09-27T12:15:28;1.00;;;0.57;;
50543;SDS011;41176;44.032;20.900;2022-09-27T12:18:40;2.13;;;0.90;;
50543;SDS011;41176;44.032;20.900;2022-09-27T12:20:53;2.35;;;0.93;;
50543;SDS011;41176;44.032;20.900;2022-09-27T12:23:35;2.22;;;1.15;;
50543;SDS011;41176;44.032;20.900;2022-09-27T12:26:07;1.42;;;0.52;;
50543;SDS011;41176;44.032;20.900;2022-09-27T12:35:56;2.03;;;0.90;;
50543;SDS011;41176;44.032;20.900;2022-09-27T12:41:29;0.45;;;0.25;;
50543;SDS011;41176;44.032;20.900;2022-09-27T13:14:28;1.42;;;0.60;;
50543;SDS011;41176;44.032;20.900;2022-09-27T13:28:34;2.55;;;0.75;;
50543;SDS011;41176;44.032;20.900;2022-09-27T13:34:50;0.52;;;0.25;;
50543;SDS011;41176;44.032;20.900;2022-09-27T13:53:22;3.60;;;0.77;;
50543;SDS011;41176;44.032;20.900;2022-09-27T14:11:09;0.40;;;0.20;;
50543;SDS011;41176;44.032;20.900;2022-09-27T14:13:42;0.68;;;0.25;;
50543;SDS011;41176;44.032;20.900;2022-09-27T14:16:13;0.80;;;0.30;;
50543;SDS011;41176;44.032;20.900;2022-09-27T14:18:50;0.93;;;0.30;;
50543;SDS011;41176;44.032;20.900;2022-09-27T14:30:12;1.00;;;0.40;;
50543;SDS011;41176;44.032;20.900;2022-09-27T14:32:46;2.75;;;0.88;;
50543;SDS011;41176;44.032;20.900;2022-09-27T14:35:18;2.03;;;0.47;;
50543;SDS011;41176;44.032;20.900;2022-09-27T14:38:10;3.05;;;0.25;;
50543;SDS011;41176;44.032;20.900;2022-09-27T14:40:42;0.43;;;0.20;;
50543;SDS011;41176;44.032;20.900;2022-09-27T14:43:20;1.00;;;0.40;;
50543;SDS011;41176;44.032;20.900;2022-09-27T14:45:47;0.95;;;0.30;;
50543;SDS011;41176;44.032;20.900;2022-09-27T14:51:02;0.38;;;0.20;;
50543;SDS011;41176;44.032;20.900;2022-09-27T14:56:58;0.77;;;0.30;;
50543;SDS011;41176;44.032;20.900;2022-09-27T14:59:25;0.77;;;0.30;;
50543;SDS011;41176;44.032;20.900;2022-09-27T15:01:57;1.43;;;0.53;;
50543;SDS011;41176;44.032;20.900;2022-09-27T15:04:26;1.75;;;0.65;;
50543;SDS011;41176;44.032;20.900;2022-09-27T15:07:15;0.88;;;0.40;;
50543;SDS011;41176;44.032;20.900;2022-09-27T15:09:52;4.07;;;0.60;;
50543;SDS011;41176;44.032;20.900;2022-09-27T15:12:30;1.55;;;0.45;;
50543;SDS011;41176;44.032;20.900;2022-09-27T15:15:15;0.77;;;0.30;;
50543;SDS011;41176;44.032;20.900;2022-09-27T15:18:41;0.90;;;0.40;;
50543;SDS011;41176;44.032;20.900;2022-09-27T15:21:12;2.08;;;0.77;;
50543;SDS011;41176;44.032;20.900;2022-09-27T15:23:51;1.38;;;0.82;;
50543;SDS011;41176;44.032;20.900;2022-09-27T15:26:23;2.15;;;0.80;;
50543;SDS011;41176;44.032;20.900;2022-09-27T15:32:35;1.77;;;0.68;;
50543;SDS011;41176;44.032;20.900;2022-09-27T15:55:38;0.88;;;0.40;;
50543;SDS011;41176;44.032;20.900;2022-09-27T15:58:48;1.95;;;0.75;;
50543;SDS011;41176;44.032;20.900;2022-09-27T16:19:53;3.08;;;1.45;;
50543;SDS011;41176;44.032;20.900;2022-09-27T16:22:44;4.60;;;1.50;;
50543;SDS011;41176;44.032;20.900;2022-09-27T16:35:21;3.33;;;1.65;;
50543;SDS011;41176;44.032;20.900;2022-09-27T18:07:57;4.57;;;1.83;;
50543;SDS011;41176;44.032;20.900;2022-09-27T19:03:37;4.43;;;2.38;;
50543;SDS011;41176;44.032;20.900;2022-09-27T19:25:27;3.17;;;1.80;;
50543;SDS011;41176;44.032;20.900;2022-09-27T19:28:05;5.70;;;2.42;;
50543;SDS011;41176;44.032;20.900;2022-09-27T19:34:19;6.03;;;2.97;;
50543;SDS011;41176;44.032;20.900;2022-09-27T19:39:37;6.20;;;2.40;;
50543;SDS011;41176;44.032;20.900;2022-09-27T19:42:03;5.47;;;2.67;;
50543;SDS011;41176;44.032;20.900;2022-09-27T19:47:36;4.97;;;2.90;;
50543;SDS011;41176;44.032;20.900;2022-09-27T19:50:02;4.57;;;2.88;;
50543;SDS011;41176;44.032;20.900;2022-09-27T19:52:28;6.22;;;2.78;;
50543;SDS011;41176;44.032;20.900;2022-09-27T20:01:40;6.15;;;2.97;;
50543;SDS011;41176;44.032;20.900;2022-09-27T20:04:09;7.15;;;3.78;;
50543;SDS011;41176;44.032;20.900;2022-09-27T20:06:46;8.07;;;2.80;;
50543;SDS011;41176;44.032;20.900;2022-09-27T20:09:12;5.63;;;2.70;;
50543;SDS011;41176;44.032;20.900;2022-09-27T20:15:10;7.57;;;4.72;;
50543;SDS011;41176;44.032;20.900;2022-09-27T20:30:56;5.30;;;3.10;;
50543;SDS011;41176;44.032;20.900;2022-09-27T20:34:07;10.32;;;3.25;;
50543;SDS011;41176;44.032;20.900;2022-09-27T20:37:11;8.45;;;3.55;;
50543;SDS011;41176;44.032;20.900;2022-09-27T20:40:34;4.82;;;2.75;;
50543;SDS011;41176;44.032;20.900;2022-09-27T20:43:02;6.47;;;3.80;;
50543;SDS011;41176;44.032;20.900;2022-09-27T20:56:24;5.32;;;2.38;;
50543;SDS011;41176;44.032;20.900;2022-09-27T21:02:15;4.00;;;2.33;;
50543;SDS011;41176;44.032;20.900;2022-09-27T21:04:44;4.10;;;2.20;;
50543;SDS011;41176;44.032;20.900;2022-09-27T21:07:33;4.35;;;2.47;;
50543;SDS011;41176;44.032;20.900;2022-09-27T21:09:58;3.25;;;1.90;;
50543;SDS011;41176;44.032;20.900;2022-09-27T21:12:24;4.30;;;2.65;;
50543;SDS011;41176;44.032;20.900;2022-09-27T21:15:20;3.17;;;1.73;;
50543;SDS011;41176;44.032;20.900;2022-09-27T21:18:20;2.13;;;1.02;;
50543;SDS011;41176;44.032;20.900;2022-09-27T21:20:46;1.02;;;0.52;;
50543;SDS011;41176;44.032;20.900;2022-09-27T21:23:29;1.73;;;0.80;;
50543;SDS011;41176;44.032;20.900;2022-09-27T21:26:01;1.77;;;0.88;;
50543;SDS011;41176;44.032;20.900;2022-09-27T21:28:51;3.17;;;0.90;;
50543;SDS011;41176;44.032;20.900;2022-09-27T21:31:26;1.13;;;0.60;;
50543;SDS011;41176;44.032;20.900;2022-09-27T21:36:55;1.58;;;0.63;;
50543;SDS011;41176;44.032;20.900;2022-09-27T21:39:32;2.85;;;0.82;;
50543;SDS011;41176;44.032;20.900;2022-09-27T21:41:58;1.30;;;0.60;;
50543;SDS011;41176;44.032;20.900;2022-09-27T21:44:27;1.33;;;0.57;;
50543;SDS011;41176;44.032;20.900;2022-09-27T21:47:08;1.55;;;0.73;;
50543;SDS011;41176;44.032;20.900;2022-09-27T21:49:37;1.63;;;0.90;;
50543;SDS011;41176;44.032;20.900;2022-09-27T21:52:03;1.50;;;0.85;;
50543;SDS011;41176;44.032;20.900;2022-09-27T21:54:29;0.77;;;0.50;;
50543;SDS011;41176;44.032;20.900;2022-09-27T21:56:55;0.70;;;0.40;;
50543;SDS011;41176;44.032;20.900;2022-09-27T21:59:21;0.98;;;0.43;;
50543;SDS011;41176;44.032;20.900;2022-09-27T22:01:52;1.40;;;0.50;;
50543;SDS011;41176;44.032;20.900;2022-09-27T22:04:23;0.93;;;0.30;;
50543;SDS011;41176;44.032;20.900;2022-09-27T22:07:00;1.00;;;0.70;;
50543;SDS011;41176;44.032;20.900;2022-09-27T22:10:06;0.40;;;0.30;;
50543;SDS011;41176;44.032;20.900;2022-09-27T22:12:54;0.70;;;0.30;;
50543;SDS011;41176;44.032;20.900;2022-09-27T22:18:27;0.43;;;0.30;;
50543;SDS011;41176;44.032;20.900;2022-09-27T22:21:59;1.63;;;0.60;;
50543;SDS011;41176;44.032;20.900;2022-09-27T22:31:33;0.75;;;0.32;;
50543;SDS011;41176;44.032;20.900;2022-09-27T22:34:10;0.65;;;0.25;;
50543;SDS011;41176;44.032;20.900;2022-09-27T22:40:34;0.50;;;0.25;;
50543;SDS011;41176;44.032;20.900;2022-09-27T22:43:21;0.40;;;0.30;;
50543;SDS011;41176;44.032;20.900;2022-09-27T22:46:11;0.68;;;0.40;;
50543;SDS011;41176;44.032;20.900;2022-09-27T22:49:34;1.15;;;0.60;;
50543;SDS011;41176;44.032;20.900;2022-09-27T22:52:00;0.70;;;0.40;;
50543;SDS011;41176;44.032;20.900;2022-09-27T22:57:22;1.35;;;0.57;;
50543;SDS011;41176;44.032;20.900;2022-09-27T22:59:52;0.98;;;0.32;;
50543;SDS011;41176;44.032;20.900;2022-09-27T23:02:24;0.68;;;0.30;;
50543;SDS011;41176;44.032;20.900;2022-09-27T23:04:56;2.15;;;0.32;;
50543;SDS011;41176;44.032;20.900;2022-09-27T23:07:39;0.32;;;0.20;;
50543;SDS011;41176;44.032;20.900;2022-09-27T23:10:17;0.70;;;0.30;;
50543;SDS011;41176;44.032;20.900;2022-09-27T23:12:43;0.88;;;0.60;;
50543;SDS011;41176;44.032;20.900;2022-09-27T23:15:11;0.40;;;0.30;;
50543;SDS011;41176;44.032;20.900;2022-09-27T23:17:42;1.35;;;0.47;;
50543;SDS011;41176;44.032;20.900;2022-09-27T23:20:13;0.55;;;0.35;;
50543;SDS011;41176;44.032;20.900;2022-09-27T23:22:44;1.60;;;0.60;;
50543;SDS011;41176;44.032;20.900;2022-09-27T23:25:10;0.68;;;0.50;;
50543;SDS011;41176;44.032;20.900;2022-09-27T23:37:02;0.25;;;0.15;;
50543;SDS011;41176;44.032;20.900;2022-09-27T23:39:28;1.55;;;0.63;;
50543;SDS011;41176;44.032;20.900;2022-09-27T23:42:29;0.90;;;0.35;;
